W4RGW-4 Weather Reports


Display with metric or nautical units.
time (UTC)temp
F
wind
direction
speed
MPH
gust
MPH
rain 1hr
in
rain 24hr
in
rain mn
in
humidity
%
barometer
mb
20210918194313 77 116 0.0 0.0 0.00 0.10 0.10 84 1017.6
20210918193812 77 75 0.0 1.0 0.00 0.10 0.10 88 1017.7
20210918193312 77 75 0.0 1.0 0.00 0.10 0.10 87 1017.6
20210918192810 77 74 1.0 1.0 0.00 0.10 0.10 88 1017.6
20210918192309 77 231 2.0 2.0 0.00 0.10 0.10 85 1017.7
20210918191807 78 151 2.0 2.0 0.00 0.10 0.10 89 1017.5
20210918191307 77 79 0.0 1.0 0.00 0.10 0.10 87 1017.6
20210918190806 78 216 3.0 3.0 0.00 0.10 0.10 86 1017.9
20210918190303 77 153 1.0 1.0 0.00 0.10 0.10 86 1017.8
20210918185802 78 200 3.0 3.0 0.00 0.10 0.10 86 1017.8
20210918185305 77 71 0.0 1.0 0.00 0.10 0.10 86 1018.2
20210918184757 77 76 0.0 1.0 0.00 0.10 0.10 86 1018.2
20210918184257 77 174 2.0 2.0 0.00 0.10 0.10 89 1018.4
20210918183754 77 145 1.0 2.0 0.00 0.10 0.10 88 1018.2
20210918183253 77 222 2.0 2.0 0.00 0.10 0.10 88 1018.2
20210918182753 77 187 1.0 2.0 0.00 0.10 0.10 89 1018.2
20210918182251 77 107 0.0 0.0 0.00 0.10 0.10 88 1018.6
20210918181751 77 134 0.0 0.0 0.00 0.10 0.10 89 1018.5
20210918181249 77 190 2.0 2.0 0.00 0.10 0.10 89 1018.7
20210918180745 76 149 1.0 1.0 0.00 0.10 0.10 90 1018.7
20210918180246 77 145 1.0 1.0 0.00 0.10 0.10 88 1018.7
20210918175742 77 150 3.0 3.0 0.00 0.10 0.10 87 1018.6
20210918175237 77 132 3.0 5.0 0.00 0.10 0.10 86 1018.6
20210918174735 77 128 4.0 5.0 0.00 0.10 0.10 87 1018.8
20210918174233 77 262 1.0 2.0 0.00 0.10 0.10 86 1018.9
20210918173732 78 172 2.0 3.0 0.00 0.10 0.10 86 1018.8
20210918173231 77 139 0.0 0.0 0.00 0.10 0.10 87 1019.1
20210918172730 77 100 1.0 1.0 0.00 0.10 0.10 87 1018.8
20210918172230 76 114 0.0 0.0 0.00 0.10 0.10 88 1019.2
20210918171729 76 140 2.0 3.0 0.00 0.10 0.10 88 1019.1
20210918171228 77 120 1.0 2.0 0.00 0.10 0.10 89 1019.3
20210918170727 77 146 1.0 1.0 0.00 0.10 0.10 89 1019.3
20210918170227 76 157 0.0 0.0 0.00 0.10 0.10 91 1019.4
20210918165723 76 315 1.0 2.0 0.00 0.10 0.10 91 1019.5
20210918165222 76 152 1.0 2.0 0.00 0.10 0.10 90 1019.3
20210918164720 76 199 1.0 1.0 0.00 0.10 0.10 92 1019.6
20210918164219 76 95 0.0 0.0 0.00 0.10 0.10 91 1019.6
20210918163718 77 266 5.0 7.0 0.00 0.10 0.10 89 1019.6
20210918163216 77 11 1.0 1.0 0.00 0.10 0.10 90 1019.4
20210918162709 76 185 2.0 2.0 0.00 0.10 0.10 91 1019.5
20210918162207 76 189 2.0 2.0 0.00 0.10 0.10 90 1019.6
20210918161648 76 105 1.0 1.0 0.00 0.10 0.10 90 1019.7
20210918161147 76 97 1.0 1.0 0.00 0.10 0.10 91 1019.7
20210918160648 76 68 0.0 1.0 0.00 0.10 0.10 90 1019.6
20210918160146 76 103 1.0 2.0 0.00 0.10 0.10 90 1019.7
20210918155644 76 145 1.0 1.0 0.00 0.10 0.10 92 1019.6
20210918155143 76 146 0.0 1.0 0.00 0.10 0.10 90 1019.7
20210918154641 76 192 0.0 0.0 0.00 0.10 0.10 91 1019.7
20210918154139 75 108 0.0 1.0 0.00 0.10 0.10 94 1019.7
20210918153638 75 107 0.0 0.0 0.00 0.10 0.10 93 1019.6
20210918153137 75 138 1.0 1.0 0.00 0.10 0.10 93 1019.5
20210918152635 75 137 0.0 0.0 0.00 0.10 0.10 93 1019.6
20210918152125 75 138 0.0 0.0 0.00 0.10 0.10 92 1019.7
20210918151624 75 137 0.0 0.0 0.04 0.10 0.10 93 1019.6
20210918151117 74 137 0.0 0.0 0.04 0.10 0.10 94 1019.9
20210918150616 74 137 0.0 0.0 0.00 0.09 0.09 94 1020.0
20210918150110 74 137 0.0 0.0 0.07 0.09 0.09 95 1020.1
20210918145609 74 137 0.0 0.0 0.07 0.09 0.09 95 1020.1
20210918145107 74 144 0.0 0.0 0.04 0.08 0.08 96 1020.0
20210918144605 74 14 0.0 0.0 0.04 0.08 0.08 95 1019.9
20210918144104 74 109 0.0 0.0 0.00 0.07 0.07 96 1019.7
20210918143604 73 110 0.0 0.0 0.00 0.07 0.07 96 1019.9
20210918143103 73 86 0.0 1.0 0.00 0.07 0.07 96 1019.8
20210918142602 73 290 0.0 0.0 0.00 0.07 0.07 96 1019.7
20210918142100 73 92 0.0 0.0 0.00 0.07 0.07 97 1019.6
20210918141601 72 179 0.0 1.0 0.07 0.07 0.07 99 1019.5
20210918141058 72 109 0.0 0.0 0.07 0.07 0.07 99 1019.6
20210918140556 72 109 0.0 0.0 0.00 0.06 0.06 99 1019.5
20210918140054 72 111 0.0 1.0 0.00 0.06 0.06 99 1019.4
20210918135553 72 109 0.0 0.0 0.04 0.06 0.06 99 1019.4
20210918135050 72 109 0.0 0.0 0.04 0.06 0.06 99 1019.6
20210918134550 72 166 0.0 1.0 0.04 0.06 0.06 99 1019.3
20210918134049 72 110 0.0 0.0 0.00 0.05 0.05 99 1019.2
20210918133547 71 111 0.0 0.0 0.00 0.05 0.05 99 1019.5
20210918133046 72 110 0.0 0.0 0.00 0.05 0.05 99 1019.4
20210918132545 71 110 0.0 0.0 0.00 0.05 0.05 99 1019.4
20210918132042 71 111 0.0 0.0 0.00 0.05 0.05 99 1019.3
20210918131541 71 110 0.0 0.0 0.00 0.05 0.05 99 1019.3
20210918131041 71 110 0.0 0.0 0.00 0.05 0.05 99 1019.3
20210918130540 71 110 0.0 0.0 0.00 0.05 0.05 99 1019.4
20210918130039 71 110 0.0 0.0 0.00 0.05 0.05 99 1019.3
20210918125538 71 110 0.0 0.0 0.07 0.05 0.05 99 1019.4
20210918125035 71 110 0.0 0.0 0.07 0.05 0.05 99 1019.3
20210918124534 71 110 0.0 0.0 0.11 0.04 0.04 99 1019.2
20210918124031 71 110 0.0 0.0 0.11 0.04 0.04 99 1019.3
20210918123531 71 110 0.0 0.0 0.11 0.03 0.03 99 1019.4
20210918123030 71 110 0.0 0.0 0.11 0.02 0.02 99 1019.3
20210918122526 71 110 0.0 0.0 0.07 0.02 0.02 99 1019.5
20210918122025 71 111 0.0 0.0 0.07 0.02 0.02 99 1019.4
20210918121520 71 109 0.0 0.0 0.04 0.00 0.00 99 1019.5
20210918121020 71 109 0.0 0.0 0.00 0.00 0.00 99 1019.4
20210918120519 71 109 0.0 0.0 0.00 0.00 0.00 99 1019.3
20210918120019 71 109 0.0 0.0 0.00 0.00 0.00 99 1019.3
20210918115518 71 111 0.0 0.0 0.00 0.00 0.00 99 1019.3
20210918115017 71 85 0.0 0.0 0.00 0.00 0.00 99 1019.3
20210918114513 71 85 0.0 0.0 0.00 0.00 0.00 99 1019.4
20210918114011 70 85 0.0 0.0 0.00 0.00 0.00 99 1019.4
20210918113506 70 85 0.0 0.0 0.00 0.00 0.00 99 1019.0
20210918113006 70 85 0.0 0.0 0.00 0.00 0.00 99 1019.3
20210918112504 70 85 0.0 0.0 0.00 0.00 0.00 99 1019.2
20210918112000 70 84 0.0 0.0 0.00 0.00 0.00 99 1019.0
20210918111500 70 85 0.0 0.0 0.00 0.00 0.00 99 1019.2
20210918110959 70 85 0.0 0.0 0.00 0.00 0.00 99 1019.1
20210918110458 70 85 0.0 0.0 0.00 0.00 0.00 99 1019.1
20210918105955 70 85 0.0 0.0 0.00 0.00 0.00 99 1019.0
20210918105453 70 84 0.0 0.0 0.00 0.00 0.00 99 1019.1
20210918104951 70 84 0.0 0.0 0.00 0.00 0.00 99 1019.0
20210918104450 71 107 0.0 0.0 0.00 0.00 0.00 99 1019.2
20210918103949 70 107 0.0 0.0 0.00 0.00 0.00 99 1018.9
20210918103446 70 107 0.0 0.0 0.00 0.00 0.00 99 1019.0
20210918102946 70 107 0.0 0.0 0.00 0.00 0.00 99 1019.0
20210918102445 70 107 0.0 0.0 0.00 0.00 0.00 99 1018.9
20210918101945 70 107 0.0 0.0 0.00 0.00 0.00 99 1018.9
20210918101444 70 109 1.0 1.0 0.00 0.00 0.00 99 1019.0
20210918100942 70 119 0.0 1.0 0.00 0.00 0.00 99 1018.8
20210918100442 70 119 0.0 0.0 0.00 0.00 0.00 99 1018.8
20210918095940 70 119 0.0 0.0 0.00 0.00 0.00 99 1019.0
20210918095438 70 119 0.0 0.0 0.00 0.00 0.00 99 1019.0
20210918094935 70 119 0.0 0.0 0.00 0.00 0.00 99 1018.9
20210918094435 70 119 0.0 0.0 0.00 0.00 0.00 99 1018.8
20210918093933 70 119 0.0 0.0 0.00 0.00 0.00 99 1018.7
20210918093433 70 119 0.0 0.0 0.00 0.00 0.00 99 1018.6
20210918092931 70 119 0.0 0.0 0.00 0.00 0.00 99 1018.6
20210918092429 70 119 0.0 0.0 0.00 0.00 0.00 99 1018.5
20210918091928 70 119 0.0 0.0 0.00 0.00 0.00 99 1018.7
20210918091426 70 119 0.0 0.0 0.00 0.00 0.00 99 1018.6
20210918090924 70 119 0.0 0.0 0.00 0.00 0.00 99 1018.4
20210918090421 70 119 0.0 0.0 0.00 0.00 0.00 99 1018.5
20210918085920 70 119 0.0 0.0 0.00 0.00 0.00 99 1018.6
20210918085419 70 119 0.0 0.0 0.00 0.00 0.00 99 1018.4
20210918084916 70 119 0.0 0.0 0.00 0.00 0.00 99 1018.6
20210918084414 70 119 0.0 0.0 0.00 0.00 0.00 99 1018.4
20210918083913 70 119 0.0 0.0 0.00 0.00 0.00 99 1018.2
20210918083409 70 119 0.0 0.0 0.00 0.00 0.00 99 1018.6
20210918082910 70 119 0.0 0.0 0.00 0.00 0.00 99 1018.7
20210918082409 70 119 0.0 0.0 0.00 0.00 0.00 99 1018.4
20210918081909 70 119 0.0 0.0 0.00 0.00 0.00 99 1018.4
20210918081408 70 119 0.0 0.0 0.00 0.00 0.00 99 1018.6
20210918080908 70 119 0.0 0.0 0.00 0.00 0.00 99 1018.4
20210918080406 70 119 0.0 0.0 0.00 0.00 0.00 99 1018.4
20210918075906 70 119 0.0 0.0 0.00 0.00 0.00 99 1018.5
20210918075406 70 119 0.0 0.0 0.00 0.00 0.00 99 1018.6
20210918074905 70 119 0.0 0.0 0.00 0.00 0.00 99 1018.7
20210918074403 70 119 0.0 0.0 0.00 0.00 0.00 99 1018.6
20210918073859 70 119 0.0 0.0 0.00 0.00 0.00 99 1018.8
20210918073359 70 119 0.0 0.0 0.00 0.00 0.00 99 1018.5
20210918072859 70 119 0.0 0.0 0.00 0.00 0.00 99 1018.8
20210918072359 70 119 0.0 0.0 0.00 0.00 0.00 99 1018.6
20210918071857 70 119 0.0 0.0 0.00 0.00 0.00 99 1018.7
20210918071357 70 119 0.0 0.0 0.00 0.00 0.00 99 1018.7
20210918070857 70 119 0.0 0.0 0.00 0.00 0.00 99 1019.0
20210918070356 70 119 0.0 0.0 0.00 0.00 0.00 99 1018.9
20210918065855 70 119 0.0 0.0 0.00 0.00 0.00 99 1018.7
20210918065355 70 119 0.0 0.0 0.00 0.00 0.00 99 1018.8
20210918064854 70 119 0.0 0.0 0.00 0.00 0.00 99 1018.7
20210918064353 70 119 0.0 0.0 0.00 0.00 0.00 99 1018.7
20210918063853 70 119 0.0 0.0 0.00 0.00 0.00 99 1018.7
20210918063352 70 119 0.0 0.0 0.00 0.00 0.00 99 1018.5
20210918062850 70 119 0.0 0.0 0.00 0.00 0.00 99 1018.7
20210918062348 70 119 0.0 0.0 0.00 0.00 0.00 99 1018.8
20210918061847 70 119 0.0 0.0 0.00 0.00 0.00 99 1018.6
20210918061345 70 119 0.0 0.0 0.00 0.00 0.00 99 1018.7
20210918060844 70 119 0.0 0.0 0.00 0.00 0.00 99 1018.9
20210918060344 70 119 0.0 0.0 0.00 0.00 0.00 99 1018.6
20210918055842 70 119 0.0 0.0 0.00 0.00 0.00 99 1018.9
20210918055341 70 119 0.0 0.0 0.00 0.00 0.00 99 1018.6
20210918054839 70 119 0.0 0.0 0.00 0.00 0.00 99 1018.8
20210918054332 70 119 0.0 0.0 0.00 0.00 0.00 99 1018.6
20210918053830 70 119 0.0 0.0 0.00 0.00 0.00 99 1018.8
20210918053328 70 119 0.0 0.0 0.00 0.00 0.00 99 1018.7
20210918052828 70 119 0.0 0.0 0.00 0.00 0.00 99 1018.9
20210918052327 70 119 0.0 0.0 0.00 0.00 0.00 99 1018.8
20210918051826 70 119 0.0 0.0 0.00 0.00 0.00 99 1018.8
20210918051323 70 119 0.0 0.0 0.00 0.00 0.00 99 1018.7
20210918050822 70 119 0.0 0.0 0.00 0.00 0.00 99 1018.8
20210918050321 70 119 0.0 0.0 0.00 0.00 0.00 99 1018.9
20210918045819 70 119 0.0 0.0 0.00 0.00 0.00 99 1018.7
20210918045317 70 119 0.0 0.0 0.00 0.00 0.00 99 1019.1
20210918044815 70 119 0.0 0.0 0.00 0.00 0.00 99 1019.0
20210918044314 70 119 0.0 0.0 0.00 0.00 0.00 99 1019.1
20210918043813 70 119 0.0 0.0 0.00 0.00 0.00 99 1019.0
20210918043310 70 119 0.0 0.0 0.00 0.00 0.00 99 1019.2
20210918042809 70 119 0.0 0.0 0.00 0.00 0.00 99 1019.2
20210918042308 70 119 0.0 0.0 0.00 0.00 0.00 99 1019.4
20210918041807 70 119 0.0 0.0 0.00 0.00 0.00 99 1019.0
20210918041306 70 119 0.0 0.0 0.00 0.00 0.00 99 1019.1
20210918040802 70 119 0.0 0.0 0.00 0.00 0.00 99 1019.1
20210918040300 70 119 0.0 0.0 0.00 0.00 0.00 99 1019.2
20210918035800 70 119 0.0 0.0 0.00 0.00 0.00 99 1019.1
20210918035256 70 119 0.0 0.0 0.00 0.00 0.00 99 1019.1
20210918034755 70 119 0.0 0.0 0.00 0.00 0.00 99 1019.2
20210918034237 70 119 0.0 0.0 0.00 0.00 0.00 99 1018.9
20210918033736 70 119 0.0 0.0 0.00 0.00 0.00 99 1019.0
20210918033235 70 119 0.0 0.0 0.00 0.00 0.00 99 1019.1
20210918032735 70 119 0.0 0.0 0.00 0.00 0.00 99 1018.9
20210918032234 70 119 0.0 0.0 0.00 0.00 0.00 99 1018.8
20210918031733 71 119 0.0 0.0 0.00 0.00 0.00 99 1018.8
20210918031233 71 119 0.0 0.0 0.00 0.00 0.00 99 1018.7
20210918030646 71 119 0.0 0.0 0.00 0.00 0.00 99 1019.0
20210918030146 71 119 0.0 1.0 0.00 0.00 0.00 99 1018.9
20210918025644 71 119 0.0 0.0 0.00 0.00 0.00 99 1019.0
20210918025143 71 119 0.0 0.0 0.00 0.00 0.00 99 1019.2
20210918024640 71 119 0.0 0.0 0.00 0.00 0.00 99 1018.9
20210918024138 71 119 0.0 0.0 0.00 0.00 0.00 99 1018.9
20210918023637 71 119 0.0 0.0 0.00 0.00 0.00 99 1019.0
20210918023137 71 119 0.0 0.0 0.00 0.00 0.00 99 1018.7
20210918022636 71 119 0.0 0.0 0.00 0.00 0.00 99 1018.7
20210918022133 71 119 0.0 0.0 0.00 0.00 0.00 99 1018.9
20210918021630 71 119 0.0 0.0 0.00 0.00 0.00 99 1018.9
20210918021130 72 119 0.0 0.0 0.00 0.00 0.00 99 1018.9
20210918020629 72 119 0.0 0.0 0.00 0.00 0.00 99 1019.0
20210918020127 72 119 0.0 0.0 0.00 0.00 0.00 99 1019.1
20210918015624 72 119 0.0 0.0 0.00 0.00 0.00 99 1019.2
20210918015124 72 119 0.0 0.0 0.00 0.00 0.00 99 1019.0
20210918014623 72 119 0.0 0.0 0.00 0.00 0.00 99 1019.1
20210918014120 72 119 0.0 0.0 0.00 0.00 0.00 99 1019.2
20210918013618 73 119 0.0 0.0 0.00 0.00 0.00 99 1019.1
20210918013117 73 119 0.0 0.0 0.00 0.00 0.00 99 1019.1
20210918012616 73 119 0.0 0.0 0.00 0.00 0.00 98 1019.2
20210918012116 73 119 0.0 0.0 0.00 0.00 0.00 98 1019.2
20210918011615 73 119 0.0 0.0 0.00 0.00 0.00 98 1019.0
20210918011114 73 119 0.0 0.0 0.00 0.00 0.00 98 1019.0
20210918010612 73 119 0.0 0.0 0.00 0.00 0.00 98 1019.1
20210918010112 73 119 0.0 0.0 0.00 0.00 0.00 98 1018.9
20210918005610 73 119 0.0 0.0 0.00 0.00 0.00 98 1018.9
20210918005110 73 119 0.0 0.0 0.00 0.00 0.00 97 1019.0
20210918004608 74 119 0.0 0.0 0.00 0.00 0.00 97 1018.6
20210918004107 74 119 0.0 0.0 0.00 0.00 0.00 97 1018.5
20210918003606 74 119 0.0 0.0 0.00 0.00 0.00 97 1018.5
20210918003104 74 119 0.0 0.0 0.00 0.00 0.00 97 1018.5
20210918002603 74 120 0.0 0.0 0.00 0.00 0.00 96 1018.1
20210918002102 74 119 0.0 0.0 0.00 0.00 0.00 95 1018.0
20210918001601 75 119 0.0 0.0 0.00 0.00 0.00 94 1018.5
20210918001100 75 119 0.0 0.0 0.00 0.00 0.00 94 1018.2
20210918000559 75 120 0.0 0.0 0.00 0.00 0.00 93 1018.4
20210918000059 75 119 0.0 0.0 0.00 0.00 0.00 92 1018.5
20210917235557 75 107 1.0 1.0 0.00 0.00 0.00 92 1018.0
20210917235056 75 109 0.0 0.0 0.00 0.00 0.00 93 1018.2
20210917234555 75 108 0.0 0.0 0.00 0.00 0.00 92 1018.1
20210917234053 75 108 0.0 0.0 0.00 0.00 0.00 91 1018.4
20210917233551 76 108 0.0 0.0 0.00 0.00 0.00 90 1018.1
20210917233050 76 110 1.0 1.0 0.00 0.00 0.00 91 1018.2
20210917232547 76 119 0.0 0.0 0.00 0.00 0.00 91 1018.2
20210917232046 76 119 0.0 0.0 0.00 0.00 0.00 91 1018.4
20210917231546 77 122 0.0 0.0 0.00 0.00 0.00 90 1018.4
20210917231045 77 109 0.0 0.0 0.00 0.00 0.00 89 1018.5
20210917230543 77 108 0.0 0.0 0.00 0.00 0.00 88 1018.2
20210917230041 77 100 0.0 0.0 0.00 0.00 0.00 87 1018.4
20210917225541 77 100 0.0 0.0 0.00 0.00 0.00 86 1018.2
20210917225039 77 112 0.0 1.0 0.00 0.00 0.00 87 1017.9
20210917224538 78 131 0.0 0.0 0.00 0.00 0.00 86 1017.8
20210917224039 78 137 0.0 0.0 0.00 0.00 0.00 85 1017.6
20210917223537 78 90 0.0 0.0 0.00 0.00 0.00 85 1017.4
20210917223035 78 97 2.0 3.0 0.00 0.00 0.00 84 1017.4
20210917222534 78 179 2.0 2.0 0.00 0.00 0.00 84 1017.5
20210917222033 78 117 1.0 1.0 0.00 0.00 0.00 85 1017.2
20210917221531 78 100 1.0 1.0 0.00 0.00 0.00 84 1017.3
20210917221031 78 148 1.0 1.0 0.00 0.00 0.00 84 1017.5
20210917220529 78 140 1.0 1.0 0.00 0.00 0.00 83 1017.2
20210917220028 78 108 0.0 0.0 0.00 0.00 0.00 84 1017.1
20210917215527 78 100 0.0 1.0 0.00 0.00 0.00 84 1017.3
20210917215025 78 135 1.0 1.0 0.00 0.00 0.00 84 1017.2
20210917214524 78 142 1.0 1.0 0.00 0.00 0.00 84 1017.5
20210917214022 78 135 3.0 3.0 0.00 0.00 0.00 83 1017.3
20210917213520 78 142 1.0 1.0 0.00 0.00 0.00 84 1017.5
20210917213020 78 212 2.0 2.0 0.00 0.00 0.00 83 1017.5
20210917212520 78 67 1.0 1.0 0.00 0.00 0.00 82 1017.6
20210917212018 79 143 1.0 2.0 0.00 0.00 0.00 83 1017.5
20210917211514 79 93 1.0 1.0 0.00 0.00 0.00 81 1017.6
20210917211015 79 100 2.0 2.0 0.00 0.00 0.00 80 1017.3
20210917210513 79 97 1.0 1.0 0.00 0.00 0.00 80 1017.5
20210917210011 79 116 1.0 2.0 0.00 0.00 0.00 80 1017.4
20210917205510 80 132 2.0 2.0 0.00 0.00 0.00 79 1017.6
20210917205009 80 101 0.0 0.0 0.00 0.00 0.00 78 1017.7
20210917204509 80 250 2.0 2.0 0.00 0.00 0.00 76 1017.5
20210917204007 80 242 0.0 1.0 0.00 0.00 0.00 77 1017.6
20210917203502 81 137 1.0 2.0 0.00 0.00 0.00 77 1017.8
20210917202959 80 91 0.0 1.0 0.00 0.00 0.00 80 1017.6
20210917202456 80 205 2.0 2.0 0.00 0.00 0.00 77 1017.6
20210917201955 80 175 2.0 2.0 0.00 0.00 0.00 78 1017.7
20210917201453 80 174 3.0 5.0 0.00 0.00 0.00 78 1017.8
20210917200953 80 154 0.0 1.0 0.00 0.00 0.00 78 1017.7
20210917200451 80 121 1.0 1.0 0.00 0.00 0.00 78 1017.5
20210917195948 80 126 2.0 3.0 0.00 0.00 0.00 79 1017.8
20210917195448 80 118 2.0 2.0 0.00 0.00 0.00 79 1017.8
20210917194946 80 139 1.0 1.0 0.00 0.00 0.00 80 1017.6